sensor_id;sensor_type;location;lat;lon;timestamp;P1;durP1;ratioP1;P2;durP2;ratioP2
16466;SDS011;8344;47.560;9.710;2023-08-20T00:00:42;0.20;;;0.20;;
16466;SDS011;8344;47.560;9.710;2023-08-20T00:03:11;0.22;;;0.22;;
16466;SDS011;8344;47.560;9.710;2023-08-20T00:05:38;0.10;;;0.10;;
16466;SDS011;8344;47.560;9.710;2023-08-20T00:08:04;0.10;;;0.10;;
16466;SDS011;8344;47.560;9.710;2023-08-20T00:10:29;0.20;;;0.20;;
16466;SDS011;8344;47.560;9.710;2023-08-20T00:12:55;0.22;;;0.22;;
16466;SDS011;8344;47.560;9.710;2023-08-20T00:15:20;0.30;;;0.30;;
16466;SDS011;8344;47.560;9.710;2023-08-20T00:17:47;0.10;;;0.10;;
16466;SDS011;8344;47.560;9.710;2023-08-20T00:20:13;0.20;;;0.20;;
16466;SDS011;8344;47.560;9.710;2023-08-20T00:22:39;0.20;;;0.20;;
16466;SDS011;8344;47.560;9.710;2023-08-20T00:25:07;0.20;;;0.20;;
16466;SDS011;8344;47.560;9.710;2023-08-20T00:27:32;0.25;;;0.25;;
16466;SDS011;8344;47.560;9.710;2023-08-20T00:29:58;0.20;;;0.20;;
16466;SDS011;8344;47.560;9.710;2023-08-20T00:32:23;0.30;;;0.30;;
16466;SDS011;8344;47.560;9.710;2023-08-20T00:34:49;0.30;;;0.30;;
16466;SDS011;8344;47.560;9.710;2023-08-20T00:37:14;0.10;;;0.10;;
16466;SDS011;8344;47.560;9.710;2023-08-20T00:39:40;0.20;;;0.20;;
16466;SDS011;8344;47.560;9.710;2023-08-20T00:42:05;0.10;;;0.10;;
16466;SDS011;8344;47.560;9.710;2023-08-20T00:44:32;0.20;;;0.20;;
16466;SDS011;8344;47.560;9.710;2023-08-20T00:46:58;0.20;;;0.20;;
16466;SDS011;8344;47.560;9.710;2023-08-20T00:49:25;0.20;;;0.20;;
16466;SDS011;8344;47.560;9.710;2023-08-20T00:51:50;0.22;;;0.22;;
16466;SDS011;8344;47.560;9.710;2023-08-20T00:54:15;0.30;;;0.30;;
16466;SDS011;8344;47.560;9.710;2023-08-20T00:56:41;0.20;;;0.20;;
16466;SDS011;8344;47.560;9.710;2023-08-20T00:59:07;0.20;;;0.20;;
16466;SDS011;8344;47.560;9.710;2023-08-20T01:01:32;0.20;;;0.20;;
16466;SDS011;8344;47.560;9.710;2023-08-20T01:03:57;0.20;;;0.20;;
16466;SDS011;8344;47.560;9.710;2023-08-20T01:06:26;0.20;;;0.20;;
16466;SDS011;8344;47.560;9.710;2023-08-20T01:09:30;0.20;;;0.20;;
16466;SDS011;8344;47.560;9.710;2023-08-20T01:11:57;0.20;;;0.20;;
16466;SDS011;8344;47.560;9.710;2023-08-20T01:14:24;0.20;;;0.20;;
16466;SDS011;8344;47.560;9.710;2023-08-20T01:16:49;0.20;;;0.20;;
16466;SDS011;8344;47.560;9.710;2023-08-20T01:19:16;0.10;;;0.10;;
16466;SDS011;8344;47.560;9.710;2023-08-20T01:24:47;0.20;;;0.20;;
16466;SDS011;8344;47.560;9.710;2023-08-20T01:27:28;0.20;;;0.20;;
16466;SDS011;8344;47.560;9.710;2023-08-20T01:29:55;0.20;;;0.20;;
16466;SDS011;8344;47.560;9.710;2023-08-20T01:32:22;0.10;;;0.10;;
16466;SDS011;8344;47.560;9.710;2023-08-20T01:34:48;0.22;;;0.22;;
16466;SDS011;8344;47.560;9.710;2023-08-20T01:37:13;0.22;;;0.22;;
16466;SDS011;8344;47.560;9.710;2023-08-20T01:39:39;0.20;;;0.20;;
16466;SDS011;8344;47.560;9.710;2023-08-20T01:42:04;0.20;;;0.20;;
16466;SDS011;8344;47.560;9.710;2023-08-20T01:44:30;0.20;;;0.20;;
16466;SDS011;8344;47.560;9.710;2023-08-20T01:46:55;0.20;;;0.20;;
16466;SDS011;8344;47.560;9.710;2023-08-20T01:49:21;0.20;;;0.20;;
16466;SDS011;8344;47.560;9.710;2023-08-20T01:51:46;0.20;;;0.20;;
16466;SDS011;8344;47.560;9.710;2023-08-20T01:54:11;0.20;;;0.20;;
16466;SDS011;8344;47.560;9.710;2023-08-20T01:56:36;0.20;;;0.20;;
16466;SDS011;8344;47.560;9.710;2023-08-20T01:59:02;0.30;;;0.30;;
16466;SDS011;8344;47.560;9.710;2023-08-20T02:01:27;0.25;;;0.25;;
16466;SDS011;8344;47.560;9.710;2023-08-20T02:03:52;0.22;;;0.22;;
16466;SDS011;8344;47.560;9.710;2023-08-20T02:06:18;0.20;;;0.20;;
16466;SDS011;8344;47.560;9.710;2023-08-20T02:08:43;0.20;;;0.20;;
16466;SDS011;8344;47.560;9.710;2023-08-20T02:11:08;0.20;;;0.20;;
16466;SDS011;8344;47.560;9.710;2023-08-20T02:13:33;0.30;;;0.30;;
16466;SDS011;8344;47.560;9.710;2023-08-20T02:15:59;0.20;;;0.20;;
16466;SDS011;8344;47.560;9.710;2023-08-20T02:18:29;0.20;;;0.20;;
16466;SDS011;8344;47.560;9.710;2023-08-20T02:20:55;0.25;;;0.25;;
16466;SDS011;8344;47.560;9.710;2023-08-20T02:23:20;0.22;;;0.22;;
16466;SDS011;8344;47.560;9.710;2023-08-20T02:25:46;0.20;;;0.20;;
16466;SDS011;8344;47.560;9.710;2023-08-20T02:28:12;0.20;;;0.20;;
16466;SDS011;8344;47.560;9.710;2023-08-20T02:30:43;0.30;;;0.30;;
16466;SDS011;8344;47.560;9.710;2023-08-20T02:33:10;0.20;;;0.20;;
16466;SDS011;8344;47.560;9.710;2023-08-20T02:35:38;0.20;;;0.20;;
16466;SDS011;8344;47.560;9.710;2023-08-20T02:38:04;0.20;;;0.20;;
16466;SDS011;8344;47.560;9.710;2023-08-20T02:40:30;0.22;;;0.22;;
16466;SDS011;8344;47.560;9.710;2023-08-20T02:42:55;0.20;;;0.20;;
16466;SDS011;8344;47.560;9.710;2023-08-20T02:45:20;0.20;;;0.20;;
16466;SDS011;8344;47.560;9.710;2023-08-20T02:47:46;0.22;;;0.22;;
16466;SDS011;8344;47.560;9.710;2023-08-20T02:50:11;0.30;;;0.30;;
16466;SDS011;8344;47.560;9.710;2023-08-20T02:52:37;0.20;;;0.20;;
16466;SDS011;8344;47.560;9.710;2023-08-20T02:55:02;0.20;;;0.20;;
16466;SDS011;8344;47.560;9.710;2023-08-20T02:57:29;0.10;;;0.10;;
16466;SDS011;8344;47.560;9.710;2023-08-20T02:59:55;0.20;;;0.20;;
16466;SDS011;8344;47.560;9.710;2023-08-20T03:02:20;0.20;;;0.20;;
16466;SDS011;8344;47.560;9.710;2023-08-20T03:04:45;0.20;;;0.20;;
16466;SDS011;8344;47.560;9.710;2023-08-20T03:07:10;0.20;;;0.20;;
16466;SDS011;8344;47.560;9.710;2023-08-20T03:09:36;0.30;;;0.30;;
16466;SDS011;8344;47.560;9.710;2023-08-20T03:12:01;0.20;;;0.20;;
16466;SDS011;8344;47.560;9.710;2023-08-20T03:14:26;0.20;;;0.20;;
16466;SDS011;8344;47.560;9.710;2023-08-20T03:16:52;0.20;;;0.20;;
16466;SDS011;8344;47.560;9.710;2023-08-20T03:19:17;0.20;;;0.20;;
16466;SDS011;8344;47.560;9.710;2023-08-20T03:21:43;0.20;;;0.20;;
16466;SDS011;8344;47.560;9.710;2023-08-20T03:24:08;0.20;;;0.20;;
16466;SDS011;8344;47.560;9.710;2023-08-20T03:26:33;0.20;;;0.20;;
16466;SDS011;8344;47.560;9.710;2023-08-20T03:28:59;0.20;;;0.20;;
16466;SDS011;8344;47.560;9.710;2023-08-20T03:31:24;0.20;;;0.20;;
16466;SDS011;8344;47.560;9.710;2023-08-20T03:33:49;0.20;;;0.20;;
16466;SDS011;8344;47.560;9.710;2023-08-20T03:36:15;0.20;;;0.20;;
16466;SDS011;8344;47.560;9.710;2023-08-20T03:38:40;0.20;;;0.20;;
16466;SDS011;8344;47.560;9.710;2023-08-20T03:41:05;0.20;;;0.20;;
16466;SDS011;8344;47.560;9.710;2023-08-20T03:43:31;0.10;;;0.10;;
16466;SDS011;8344;47.560;9.710;2023-08-20T03:45:56;0.20;;;0.20;;
16466;SDS011;8344;47.560;9.710;2023-08-20T03:48:21;0.20;;;0.20;;
16466;SDS011;8344;47.560;9.710;2023-08-20T03:50:47;0.13;;;0.13;;
16466;SDS011;8344;47.560;9.710;2023-08-20T03:53:12;0.20;;;0.20;;
16466;SDS011;8344;47.560;9.710;2023-08-20T03:55:37;0.20;;;0.20;;
16466;SDS011;8344;47.560;9.710;2023-08-20T03:58:03;0.20;;;0.20;;
16466;SDS011;8344;47.560;9.710;2023-08-20T04:00:28;0.20;;;0.20;;
16466;SDS011;8344;47.560;9.710;2023-08-20T04:02:53;0.20;;;0.20;;
16466;SDS011;8344;47.560;9.710;2023-08-20T04:05:19;0.20;;;0.20;;
16466;SDS011;8344;47.560;9.710;2023-08-20T04:07:44;0.38;;;0.38;;
16466;SDS011;8344;47.560;9.710;2023-08-20T04:10:10;0.20;;;0.20;;
16466;SDS011;8344;47.560;9.710;2023-08-20T04:12:35;0.25;;;0.25;;
16466;SDS011;8344;47.560;9.710;2023-08-20T04:15:00;0.20;;;0.20;;
16466;SDS011;8344;47.560;9.710;2023-08-20T04:17:26;0.20;;;0.20;;
16466;SDS011;8344;47.560;9.710;2023-08-20T04:19:52;0.20;;;0.20;;
16466;SDS011;8344;47.560;9.710;2023-08-20T04:22:17;0.20;;;0.20;;
16466;SDS011;8344;47.560;9.710;2023-08-20T04:24:42;0.20;;;0.20;;
16466;SDS011;8344;47.560;9.710;2023-08-20T04:27:07;0.30;;;0.30;;
16466;SDS011;8344;47.560;9.710;2023-08-20T04:29:33;0.17;;;0.17;;
16466;SDS011;8344;47.560;9.710;2023-08-20T04:31:58;0.20;;;0.20;;
16466;SDS011;8344;47.560;9.710;2023-08-20T04:34:23;0.25;;;0.25;;
16466;SDS011;8344;47.560;9.710;2023-08-20T04:36:49;0.30;;;0.30;;
16466;SDS011;8344;47.560;9.710;2023-08-20T04:39:14;0.30;;;0.30;;
16466;SDS011;8344;47.560;9.710;2023-08-20T04:41:39;0.20;;;0.20;;
16466;SDS011;8344;47.560;9.710;2023-08-20T04:44:05;0.30;;;0.30;;
16466;SDS011;8344;47.560;9.710;2023-08-20T04:46:30;0.30;;;0.30;;
16466;SDS011;8344;47.560;9.710;2023-08-20T04:48:55;0.20;;;0.20;;
16466;SDS011;8344;47.560;9.710;2023-08-20T04:51:21;0.20;;;0.20;;
16466;SDS011;8344;47.560;9.710;2023-08-20T04:53:46;0.20;;;0.20;;
16466;SDS011;8344;47.560;9.710;2023-08-20T04:56:12;0.20;;;0.20;;
16466;SDS011;8344;47.560;9.710;2023-08-20T04:58:38;0.17;;;0.17;;
16466;SDS011;8344;47.560;9.710;2023-08-20T05:01:03;0.20;;;0.20;;
16466;SDS011;8344;47.560;9.710;2023-08-20T05:03:30;0.20;;;0.20;;
16466;SDS011;8344;47.560;9.710;2023-08-20T05:05:55;0.20;;;0.20;;
16466;SDS011;8344;47.560;9.710;2023-08-20T05:08:20;0.10;;;0.10;;
16466;SDS011;8344;47.560;9.710;2023-08-20T05:10:46;0.25;;;0.25;;
16466;SDS011;8344;47.560;9.710;2023-08-20T05:13:11;0.20;;;0.20;;
16466;SDS011;8344;47.560;9.710;2023-08-20T05:15:36;0.15;;;0.15;;
16466;SDS011;8344;47.560;9.710;2023-08-20T05:18:02;0.30;;;0.30;;
16466;SDS011;8344;47.560;9.710;2023-08-20T05:20:27;0.20;;;0.20;;
16466;SDS011;8344;47.560;9.710;2023-08-20T05:22:52;0.20;;;0.20;;
16466;SDS011;8344;47.560;9.710;2023-08-20T05:25:17;0.20;;;0.20;;
16466;SDS011;8344;47.560;9.710;2023-08-20T05:27:43;0.20;;;0.20;;
16466;SDS011;8344;47.560;9.710;2023-08-20T05:30:08;0.20;;;0.20;;
16466;SDS011;8344;47.560;9.710;2023-08-20T05:32:34;0.30;;;0.30;;
16466;SDS011;8344;47.560;9.710;2023-08-20T05:34:59;0.20;;;0.20;;
16466;SDS011;8344;47.560;9.710;2023-08-20T05:37:24;0.20;;;0.20;;
16466;SDS011;8344;47.560;9.710;2023-08-20T05:39:49;0.20;;;0.20;;
16466;SDS011;8344;47.560;9.710;2023-08-20T05:42:15;0.20;;;0.20;;
16466;SDS011;8344;47.560;9.710;2023-08-20T05:44:40;0.20;;;0.20;;
16466;SDS011;8344;47.560;9.710;2023-08-20T05:47:07;0.13;;;0.13;;
16466;SDS011;8344;47.560;9.710;2023-08-20T05:49:32;0.15;;;0.15;;
16466;SDS011;8344;47.560;9.710;2023-08-20T05:51:57;0.20;;;0.20;;
16466;SDS011;8344;47.560;9.710;2023-08-20T05:54:23;0.20;;;0.20;;
16466;SDS011;8344;47.560;9.710;2023-08-20T05:56:48;0.20;;;0.20;;
16466;SDS011;8344;47.560;9.710;2023-08-20T05:59:13;0.20;;;0.20;;
16466;SDS011;8344;47.560;9.710;2023-08-20T06:01:39;0.20;;;0.20;;
16466;SDS011;8344;47.560;9.710;2023-08-20T06:04:04;0.30;;;0.30;;
16466;SDS011;8344;47.560;9.710;2023-08-20T06:06:29;0.20;;;0.20;;
16466;SDS011;8344;47.560;9.710;2023-08-20T06:08:55;0.20;;;0.20;;
16466;SDS011;8344;47.560;9.710;2023-08-20T06:11:20;0.22;;;0.22;;
16466;SDS011;8344;47.560;9.710;2023-08-20T06:13:45;0.20;;;0.20;;
16466;SDS011;8344;47.560;9.710;2023-08-20T06:16:11;0.20;;;0.20;;
16466;SDS011;8344;47.560;9.710;2023-08-20T06:18:36;0.20;;;0.20;;
16466;SDS011;8344;47.560;9.710;2023-08-20T06:21:02;0.20;;;0.20;;
16466;SDS011;8344;47.560;9.710;2023-08-20T06:23:27;0.20;;;0.20;;
16466;SDS011;8344;47.560;9.710;2023-08-20T06:25:53;0.10;;;0.10;;
16466;SDS011;8344;47.560;9.710;2023-08-20T06:28:19;0.13;;;0.13;;
16466;SDS011;8344;47.560;9.710;2023-08-20T06:30:44;0.20;;;0.20;;
16466;SDS011;8344;47.560;9.710;2023-08-20T06:33:10;0.10;;;0.10;;
16466;SDS011;8344;47.560;9.710;2023-08-20T06:35:36;0.10;;;0.10;;
16466;SDS011;8344;47.560;9.710;2023-08-20T06:38:01;0.10;;;0.10;;
16466;SDS011;8344;47.560;9.710;2023-08-20T06:40:27;0.10;;;0.10;;
16466;SDS011;8344;47.560;9.710;2023-08-20T06:42:52;0.10;;;0.10;;
16466;SDS011;8344;47.560;9.710;2023-08-20T06:45:17;0.05;;;0.05;;
16466;SDS011;8344;47.560;9.710;2023-08-20T06:47:42;0.00;;;0.00;;
16466;SDS011;8344;47.560;9.710;2023-08-20T06:50:08;0.00;;;0.00;;
16466;SDS011;8344;47.560;9.710;2023-08-20T06:52:34;0.00;;;0.00;;
16466;SDS011;8344;47.560;9.710;2023-08-20T06:54:59;0.00;;;0.00;;
16466;SDS011;8344;47.560;9.710;2023-08-20T06:57:24;0.10;;;0.10;;
16466;SDS011;8344;47.560;9.710;2023-08-20T06:59:50;0.10;;;0.10;;
16466;SDS011;8344;47.560;9.710;2023-08-20T07:02:15;0.10;;;0.10;;
16466;SDS011;8344;47.560;9.710;2023-08-20T07:04:40;0.10;;;0.10;;
16466;SDS011;8344;47.560;9.710;2023-08-20T07:07:05;0.08;;;0.08;;
16466;SDS011;8344;47.560;9.710;2023-08-20T07:09:31;0.10;;;0.10;;
16466;SDS011;8344;47.560;9.710;2023-08-20T07:11:56;0.10;;;0.10;;
16466;SDS011;8344;47.560;9.710;2023-08-20T07:14:21;0.00;;;0.00;;
16466;SDS011;8344;47.560;9.710;2023-08-20T07:16:47;0.10;;;0.10;;
16466;SDS011;8344;47.560;9.710;2023-08-20T07:19:12;0.03;;;0.03;;
16466;SDS011;8344;47.560;9.710;2023-08-20T07:21:37;0.20;;;0.20;;
16466;SDS011;8344;47.560;9.710;2023-08-20T07:24:03;0.10;;;0.10;;
16466;SDS011;8344;47.560;9.710;2023-08-20T07:26:29;0.17;;;0.17;;
16466;SDS011;8344;47.560;9.710;2023-08-20T07:28:54;0.10;;;0.10;;
16466;SDS011;8344;47.560;9.710;2023-08-20T07:31:23;0.10;;;0.10;;
16466;SDS011;8344;47.560;9.710;2023-08-20T07:33:49;0.10;;;0.10;;
16466;SDS011;8344;47.560;9.710;2023-08-20T07:36:15;0.10;;;0.10;;
16466;SDS011;8344;47.560;9.710;2023-08-20T07:38:41;0.10;;;0.10;;
16466;SDS011;8344;47.560;9.710;2023-08-20T07:41:08;0.10;;;0.10;;
16466;SDS011;8344;47.560;9.710;2023-08-20T07:43:34;0.10;;;0.10;;
16466;SDS011;8344;47.560;9.710;2023-08-20T07:45:59;0.10;;;0.10;;
16466;SDS011;8344;47.560;9.710;2023-08-20T07:48:25;0.10;;;0.10;;
16466;SDS011;8344;47.560;9.710;2023-08-20T07:50:50;0.10;;;0.10;;
16466;SDS011;8344;47.560;9.710;2023-08-20T07:53:15;0.10;;;0.10;;
16466;SDS011;8344;47.560;9.710;2023-08-20T07:55:41;0.10;;;0.10;;
16466;SDS011;8344;47.560;9.710;2023-08-20T07:58:06;0.10;;;0.10;;
16466;SDS011;8344;47.560;9.710;2023-08-20T08:00:31;0.10;;;0.10;;
16466;SDS011;8344;47.560;9.710;2023-08-20T08:02:56;0.10;;;0.10;;
16466;SDS011;8344;47.560;9.710;2023-08-20T08:05:22;0.10;;;0.10;;
16466;SDS011;8344;47.560;9.710;2023-08-20T08:07:47;0.10;;;0.10;;
16466;SDS011;8344;47.560;9.710;2023-08-20T08:10:12;0.10;;;0.10;;
16466;SDS011;8344;47.560;9.710;2023-08-20T08:12:38;0.10;;;0.10;;
16466;SDS011;8344;47.560;9.710;2023-08-20T08:15:03;0.20;;;0.20;;
16466;SDS011;8344;47.560;9.710;2023-08-20T08:17:28;0.15;;;0.15;;
16466;SDS011;8344;47.560;9.710;2023-08-20T08:19:54;0.10;;;0.10;;
16466;SDS011;8344;47.560;9.710;2023-08-20T08:22:20;0.10;;;0.10;;
16466;SDS011;8344;47.560;9.710;2023-08-20T08:24:45;0.10;;;0.10;;
16466;SDS011;8344;47.560;9.710;2023-08-20T08:27:11;0.10;;;0.10;;
16466;SDS011;8344;47.560;9.710;2023-08-20T08:29:36;0.25;;;0.25;;
16466;SDS011;8344;47.560;9.710;2023-08-20T08:32:01;0.10;;;0.10;;
16466;SDS011;8344;47.560;9.710;2023-08-20T08:34:27;0.10;;;0.10;;
16466;SDS011;8344;47.560;9.710;2023-08-20T08:36:52;0.10;;;0.10;;
16466;SDS011;8344;47.560;9.710;2023-08-20T08:39:17;0.17;;;0.17;;
16466;SDS011;8344;47.560;9.710;2023-08-20T08:41:43;0.10;;;0.10;;
16466;SDS011;8344;47.560;9.710;2023-08-20T08:44:08;0.10;;;0.10;;
16466;SDS011;8344;47.560;9.710;2023-08-20T08:46:35;0.10;;;0.10;;
16466;SDS011;8344;47.560;9.710;2023-08-20T08:49:00;0.10;;;0.10;;
16466;SDS011;8344;47.560;9.710;2023-08-20T08:51:26;0.10;;;0.10;;
16466;SDS011;8344;47.560;9.710;2023-08-20T08:53:51;0.20;;;0.20;;
16466;SDS011;8344;47.560;9.710;2023-08-20T08:56:18;0.10;;;0.10;;
16466;SDS011;8344;47.560;9.710;2023-08-20T08:58:43;0.10;;;0.10;;
16466;SDS011;8344;47.560;9.710;2023-08-20T09:01:08;0.08;;;0.08;;
16466;SDS011;8344;47.560;9.710;2023-08-20T09:03:34;0.10;;;0.10;;
16466;SDS011;8344;47.560;9.710;2023-08-20T09:06:00;0.10;;;0.10;;
16466;SDS011;8344;47.560;9.710;2023-08-20T09:08:28;0.00;;;0.00;;
16466;SDS011;8344;47.560;9.710;2023-08-20T09:10:56;0.10;;;0.10;;
16466;SDS011;8344;47.560;9.710;2023-08-20T09:13:42;0.00;;;0.00;;
16466;SDS011;8344;47.560;9.710;2023-08-20T09:16:10;0.13;;;0.13;;
16466;SDS011;8344;47.560;9.710;2023-08-20T09:18:40;0.10;;;0.10;;
16466;SDS011;8344;47.560;9.710;2023-08-20T09:21:06;0.20;;;0.20;;
16466;SDS011;8344;47.560;9.710;2023-08-20T09:23:33;0.10;;;0.10;;
16466;SDS011;8344;47.560;9.710;2023-08-20T09:26:00;0.10;;;0.10;;
16466;SDS011;8344;47.560;9.710;2023-08-20T09:28:27;0.10;;;0.10;;
16466;SDS011;8344;47.560;9.710;2023-08-20T09:30:58;0.10;;;0.10;;
16466;SDS011;8344;47.560;9.710;2023-08-20T09:33:26;0.10;;;0.10;;
16466;SDS011;8344;47.560;9.710;2023-08-20T09:35:52;0.10;;;0.10;;
16466;SDS011;8344;47.560;9.710;2023-08-20T09:38:19;0.10;;;0.10;;
16466;SDS011;8344;47.560;9.710;2023-08-20T09:40:52;0.10;;;0.10;;
16466;SDS011;8344;47.560;9.710;2023-08-20T09:43:18;0.08;;;0.08;;
16466;SDS011;8344;47.560;9.710;2023-08-20T09:45:44;0.10;;;0.10;;
16466;SDS011;8344;47.560;9.710;2023-08-20T09:48:11;0.10;;;0.10;;
16466;SDS011;8344;47.560;9.710;2023-08-20T09:50:38;0.10;;;0.10;;
16466;SDS011;8344;47.560;9.710;2023-08-20T09:56:09;0.10;;;0.10;;
16466;SDS011;8344;47.560;9.710;2023-08-20T09:58:40;0.10;;;0.10;;
16466;SDS011;8344;47.560;9.710;2023-08-20T10:01:06;0.10;;;0.10;;
16466;SDS011;8344;47.560;9.710;2023-08-20T10:03:32;0.10;;;0.10;;
16466;SDS011;8344;47.560;9.710;2023-08-20T10:05:58;0.10;;;0.10;;
16466;SDS011;8344;47.560;9.710;2023-08-20T10:08:23;0.10;;;0.10;;
16466;SDS011;8344;47.560;9.710;2023-08-20T10:10:49;0.05;;;0.05;;
16466;SDS011;8344;47.560;9.710;2023-08-20T10:13:14;0.05;;;0.05;;
16466;SDS011;8344;47.560;9.710;2023-08-20T10:15:40;0.00;;;0.00;;
16466;SDS011;8344;47.560;9.710;2023-08-20T10:18:07;0.00;;;0.00;;
16466;SDS011;8344;47.560;9.710;2023-08-20T10:20:32;0.00;;;0.00;;
16466;SDS011;8344;47.560;9.710;2023-08-20T10:23:02;0.00;;;0.00;;
16466;SDS011;8344;47.560;9.710;2023-08-20T10:25:29;0.10;;;0.10;;
16466;SDS011;8344;47.560;9.710;2023-08-20T10:28:10;0.00;;;0.00;;
16466;SDS011;8344;47.560;9.710;2023-08-20T10:30:36;0.10;;;0.10;;
16466;SDS011;8344;47.560;9.710;2023-08-20T10:33:01;0.10;;;0.10;;
16466;SDS011;8344;47.560;9.710;2023-08-20T10:35:29;0.00;;;0.00;;
16466;SDS011;8344;47.560;9.710;2023-08-20T10:38:12;0.10;;;0.10;;
16466;SDS011;8344;47.560;9.710;2023-08-20T10:48:43;0.10;;;0.10;;
16466;SDS011;8344;47.560;9.710;2023-08-20T10:51:13;0.00;;;0.00;;
16466;SDS011;8344;47.560;9.710;2023-08-20T10:53:40;0.10;;;0.10;;
16466;SDS011;8344;47.560;9.710;2023-08-20T10:56:16;0.10;;;0.10;;
16466;SDS011;8344;47.560;9.710;2023-08-20T10:58:43;0.10;;;0.10;;
16466;SDS011;8344;47.560;9.710;2023-08-20T11:01:13;0.00;;;0.00;;
16466;SDS011;8344;47.560;9.710;2023-08-20T11:03:42;0.10;;;0.10;;
16466;SDS011;8344;47.560;9.710;2023-08-20T11:06:09;0.00;;;0.00;;
16466;SDS011;8344;47.560;9.710;2023-08-20T11:08:35;0.00;;;0.00;;
16466;SDS011;8344;47.560;9.710;2023-08-20T11:11:00;0.10;;;0.10;;
16466;SDS011;8344;47.560;9.710;2023-08-20T11:13:26;0.00;;;0.00;;
16466;SDS011;8344;47.560;9.710;2023-08-20T11:15:52;0.08;;;0.08;;
16466;SDS011;8344;47.560;9.710;2023-08-20T11:18:17;0.00;;;0.00;;
16466;SDS011;8344;47.560;9.710;2023-08-20T11:20:43;0.10;;;0.10;;
16466;SDS011;8344;47.560;9.710;2023-08-20T11:23:08;0.00;;;0.00;;
16466;SDS011;8344;47.560;9.710;2023-08-20T11:25:40;0.00;;;0.00;;
16466;SDS011;8344;47.560;9.710;2023-08-20T11:28:06;0.00;;;0.00;;
16466;SDS011;8344;47.560;9.710;2023-08-20T11:30:31;0.10;;;0.10;;
16466;SDS011;8344;47.560;9.710;2023-08-20T11:32:57;0.10;;;0.10;;
16466;SDS011;8344;47.560;9.710;2023-08-20T11:35:22;0.00;;;0.00;;
16466;SDS011;8344;47.560;9.710;2023-08-20T11:37:48;0.10;;;0.10;;
16466;SDS011;8344;47.560;9.710;2023-08-20T11:40:14;0.10;;;0.10;;
16466;SDS011;8344;47.560;9.710;2023-08-20T11:42:39;0.10;;;0.10;;
16466;SDS011;8344;47.560;9.710;2023-08-20T11:45:05;0.08;;;0.08;;
16466;SDS011;8344;47.560;9.710;2023-08-20T11:47:38;0.10;;;0.10;;
16466;SDS011;8344;47.560;9.710;2023-08-20T11:50:04;0.10;;;0.10;;
16466;SDS011;8344;47.560;9.710;2023-08-20T11:52:30;0.05;;;0.05;;
16466;SDS011;8344;47.560;9.710;2023-08-20T11:54:59;0.10;;;0.10;;
16466;SDS011;8344;47.560;9.710;2023-08-20T11:57:25;0.00;;;0.00;;
16466;SDS011;8344;47.560;9.710;2023-08-20T11:59:50;0.00;;;0.00;;
16466;SDS011;8344;47.560;9.710;2023-08-20T12:02:24;0.10;;;0.10;;
16466;SDS011;8344;47.560;9.710;2023-08-20T12:04:50;0.00;;;0.00;;
16466;SDS011;8344;47.560;9.710;2023-08-20T12:07:16;0.10;;;0.10;;
16466;SDS011;8344;47.560;9.710;2023-08-20T12:09:41;0.00;;;0.00;;
16466;SDS011;8344;47.560;9.710;2023-08-20T12:12:07;0.10;;;0.10;;
16466;SDS011;8344;47.560;9.710;2023-08-20T12:14:33;0.10;;;0.10;;
16466;SDS011;8344;47.560;9.710;2023-08-20T12:16:59;0.10;;;0.10;;
16466;SDS011;8344;47.560;9.710;2023-08-20T12:19:24;0.10;;;0.10;;
16466;SDS011;8344;47.560;9.710;2023-08-20T12:21:50;0.08;;;0.08;;
16466;SDS011;8344;47.560;9.710;2023-08-20T12:24:16;0.00;;;0.00;;
16466;SDS011;8344;47.560;9.710;2023-08-20T12:26:41;0.08;;;0.08;;
16466;SDS011;8344;47.560;9.710;2023-08-20T12:29:07;0.00;;;0.00;;
16466;SDS011;8344;47.560;9.710;2023-08-20T12:31:33;0.03;;;0.03;;
16466;SDS011;8344;47.560;9.710;2023-08-20T12:33:59;0.00;;;0.00;;
16466;SDS011;8344;47.560;9.710;2023-08-20T12:36:25;0.00;;;0.00;;
16466;SDS011;8344;47.560;9.710;2023-08-20T12:38:50;0.00;;;0.00;;
16466;SDS011;8344;47.560;9.710;2023-08-20T12:41:15;0.10;;;0.10;;
16466;SDS011;8344;47.560;9.710;2023-08-20T12:43:41;0.00;;;0.00;;
16466;SDS011;8344;47.560;9.710;2023-08-20T12:46:06;0.10;;;0.10;;
16466;SDS011;8344;47.560;9.710;2023-08-20T12:48:32;0.10;;;0.10;;
16466;SDS011;8344;47.560;9.710;2023-08-20T12:50:57;0.10;;;0.10;;
16466;SDS011;8344;47.560;9.710;2023-08-20T12:53:23;0.10;;;0.10;;
16466;SDS011;8344;47.560;9.710;2023-08-20T12:55:48;0.00;;;0.00;;
16466;SDS011;8344;47.560;9.710;2023-08-20T12:58:13;0.00;;;0.00;;
16466;SDS011;8344;47.560;9.710;2023-08-20T13:00:39;0.00;;;0.00;;
16466;SDS011;8344;47.560;9.710;2023-08-20T13:03:05;0.10;;;0.10;;
16466;SDS011;8344;47.560;9.710;2023-08-20T13:05:30;0.10;;;0.10;;
16466;SDS011;8344;47.560;9.710;2023-08-20T13:07:56;0.00;;;0.00;;
16466;SDS011;8344;47.560;9.710;2023-08-20T13:10:22;0.10;;;0.10;;
16466;SDS011;8344;47.560;9.710;2023-08-20T13:12:48;0.08;;;0.08;;
16466;SDS011;8344;47.560;9.710;2023-08-20T13:15:16;0.10;;;0.10;;
16466;SDS011;8344;47.560;9.710;2023-08-20T13:17:42;0.00;;;0.00;;
16466;SDS011;8344;47.560;9.710;2023-08-20T13:20:08;0.00;;;0.00;;
16466;SDS011;8344;47.560;9.710;2023-08-20T13:22:33;0.08;;;0.08;;
16466;SDS011;8344;47.560;9.710;2023-08-20T13:24:58;0.00;;;0.00;;
16466;SDS011;8344;47.560;9.710;2023-08-20T13:27:24;0.00;;;0.00;;
16466;SDS011;8344;47.560;9.710;2023-08-20T13:29:49;0.10;;;0.10;;
16466;SDS011;8344;47.560;9.710;2023-08-20T13:32:15;0.10;;;0.10;;
16466;SDS011;8344;47.560;9.710;2023-08-20T13:34:40;0.03;;;0.03;;
16466;SDS011;8344;47.560;9.710;2023-08-20T13:37:06;0.10;;;0.10;;
16466;SDS011;8344;47.560;9.710;2023-08-20T13:39:31;0.00;;;0.00;;
16466;SDS011;8344;47.560;9.710;2023-08-20T13:41:56;0.00;;;0.00;;
16466;SDS011;8344;47.560;9.710;2023-08-20T13:44:22;0.00;;;0.00;;
16466;SDS011;8344;47.560;9.710;2023-08-20T13:46:47;0.10;;;0.10;;
16466;SDS011;8344;47.560;9.710;2023-08-20T13:49:12;0.05;;;0.05;;
16466;SDS011;8344;47.560;9.710;2023-08-20T13:51:38;0.08;;;0.08;;
16466;SDS011;8344;47.560;9.710;2023-08-20T13:54:03;0.00;;;0.00;;
16466;SDS011;8344;47.560;9.710;2023-08-20T13:56:29;0.00;;;0.00;;
16466;SDS011;8344;47.560;9.710;2023-08-20T13:58:54;0.00;;;0.00;;
16466;SDS011;8344;47.560;9.710;2023-08-20T14:01:19;0.00;;;0.00;;
16466;SDS011;8344;47.560;9.710;2023-08-20T14:03:45;0.10;;;0.10;;
16466;SDS011;8344;47.560;9.710;2023-08-20T14:06:10;0.00;;;0.00;;
16466;SDS011;8344;47.560;9.710;2023-08-20T14:08:35;0.10;;;0.10;;
16466;SDS011;8344;47.560;9.710;2023-08-20T14:11:01;0.10;;;0.10;;
16466;SDS011;8344;47.560;9.710;2023-08-20T14:13:26;0.08;;;0.08;;
16466;SDS011;8344;47.560;9.710;2023-08-20T14:15:51;0.08;;;0.08;;
16466;SDS011;8344;47.560;9.710;2023-08-20T14:18:17;0.00;;;0.00;;
16466;SDS011;8344;47.560;9.710;2023-08-20T14:20:42;0.00;;;0.00;;
16466;SDS011;8344;47.560;9.710;2023-08-20T14:23:08;0.00;;;0.00;;
16466;SDS011;8344;47.560;9.710;2023-08-20T14:25:33;0.08;;;0.08;;
16466;SDS011;8344;47.560;9.710;2023-08-20T14:27:59;0.00;;;0.00;;
16466;SDS011;8344;47.560;9.710;2023-08-20T14:30:25;0.10;;;0.10;;
16466;SDS011;8344;47.560;9.710;2023-08-20T14:32:50;0.00;;;0.00;;
16466;SDS011;8344;47.560;9.710;2023-08-20T14:35:16;0.10;;;0.10;;
16466;SDS011;8344;47.560;9.710;2023-08-20T14:37:41;0.00;;;0.00;;
16466;SDS011;8344;47.560;9.710;2023-08-20T14:40:08;0.00;;;0.00;;
16466;SDS011;8344;47.560;9.710;2023-08-20T14:42:35;0.00;;;0.00;;
16466;SDS011;8344;47.560;9.710;2023-08-20T14:45:01;0.10;;;0.10;;
16466;SDS011;8344;47.560;9.710;2023-08-20T14:47:27;0.00;;;0.00;;
16466;SDS011;8344;47.560;9.710;2023-08-20T14:49:53;0.03;;;0.03;;
16466;SDS011;8344;47.560;9.710;2023-08-20T14:52:18;0.10;;;0.10;;
16466;SDS011;8344;47.560;9.710;2023-08-20T14:54:43;0.00;;;0.00;;
16466;SDS011;8344;47.560;9.710;2023-08-20T14:57:09;0.10;;;0.10;;
16466;SDS011;8344;47.560;9.710;2023-08-20T14:59:34;0.00;;;0.00;;
16466;SDS011;8344;47.560;9.710;2023-08-20T15:01:59;0.10;;;0.10;;
16466;SDS011;8344;47.560;9.710;2023-08-20T15:04:25;0.00;;;0.00;;
16466;SDS011;8344;47.560;9.710;2023-08-20T15:06:50;0.00;;;0.00;;